< Cyclone 198512 1985 Season Cyclone 198601 >
Cyclone 198513 (LINDSAY)
General InformationDetailed Track InformationTrack Information on Google MapsList of All Images || ResourceGoogle EarthGE AnimationAtom FeedGeoJSON
Detalied Best Track Wind (Time Zone = UTC)
Year Month Day Hour Lat. Long. Wind (kt) Gust (kt) Direc. of Major Storm Axis Radius of Major Storm Axis (nm) Radius of Minor Storm Axis (nm) Direc. of Major Gale Axis Radius of Major Gale Axis (nm) Radius of Minor Gale Axis (nm) Image
1985 3 6 00 -9.1 117.6 0 -1 symmetric - - symmetric - - Image
1985 3 6 06 -9.4 117.6 0 -1 symmetric - - symmetric - - Image
1985 3 6 12 -9.7 117.8 0 -1 symmetric - - symmetric - - Image
1985 3 6 18 -9.8 118.4 0 -1 symmetric - - symmetric - - Image
1985 3 7 00 -9.8 119.1 0 -1 symmetric - - symmetric - - Image
1985 3 7 06 -10.1 119.8 33 -1 symmetric - - symmetric - - Image
1985 3 7 12 -10.6 119.3 43 -1 symmetric - - symmetric - - Image
1985 3 7 18 -10.9 118.4 51 -1 symmetric - - symmetric - - Image
1985 3 8 00 -11.3 117.7 58 -1 symmetric - - symmetric - - Image
1985 3 8 06 -12.0 117.2 62 -1 symmetric - - symmetric - - Image
1985 3 8 12 -13.0 117.9 66 -1 symmetric - - symmetric - - Image
1985 3 8 18 -14.0 118.8 82 -1 symmetric - - symmetric - - Image
1985 3 9 00 -15.0 119.9 88 -1 symmetric - - symmetric - - Image
1985 3 9 06 -16.1 120.8 95 -1 symmetric - - symmetric - - Image
1985 3 9 09 -16.7 121.1 91 -1 symmetric - - symmetric - - Image
1985 3 9 12 -17.2 121.4 89 -1 symmetric - - symmetric - - Image
1985 3 9 16 -17.9 122.0 86 -1 symmetric - - symmetric - - Image
1985 3 9 18 -18.3 122.2 82 -1 symmetric - - symmetric - - Image
1985 3 9 21 -19.0 122.4 78 -1 symmetric - - symmetric - - Image
1985 3 10 00 -19.7 122.6 74 -1 symmetric - - symmetric - - Image
1985 3 10 03 -20.3 122.8 70 -1 symmetric - - symmetric - - Image
1985 3 10 06 -20.8 123.2 66 -1 symmetric - - symmetric - - Image
1985 3 10 09 -21.2 123.8 60 -1 symmetric - - symmetric - - Image
1985 3 10 12 -21.7 124.5 54 -1 symmetric - - symmetric - - Image
1985 3 10 18 -22.9 125.9 47 -1 symmetric - - symmetric - - Image
1985 3 11 00 -23.9 126.9 41 -1 symmetric - - symmetric - - Image
1985 3 11 06 -25.2 127.5 39 -1 symmetric - - symmetric - - Image
1985 3 11 12 -26.8 128.4 0 -1 symmetric - - symmetric - - Image
1985 3 11 18 -28.3 129.8 0 -1 symmetric - - symmetric - - Image
< Cyclone 198512 1985 Season Cyclone 198601 >

Help